Crystal Springs, Florida
Current Conditions -  °F | °C
As of 1:15 AM on Wednesday 28 Jan 2015 (Local Time) from KZPH Reporting Station
Haze Haze  
Wind Chill: 45°   Ceiling: Unl
Heat Index: 45°   Visibility: 2.5mi
Dew Point: 43°   Wind: 0mph
Humidity: 93%   Direction: NA
Pressure: 30.09"   Gusts: NA
Location:  28.18°N, 82.16°W
Report Text: KZPH 280615Z AUTO 00000KT 2 1/2SM BR CLR 07/06 A3009 RMK AO2 VIS 3/4V5
Loading
Personal Weather Stations






























Interactive Weather Map New forecast layout! Learn more

10-Day Weather Forecast

Advertisements
Track Severe Weather on mobile